Hauptseite
METAR-TAF:

METAR-TAF

Flughäfen :

Nörvenich, Deutschland

Fliegerhorst Nörvenich

Breite: 50-50N, Länge: 006-40E, Höhe: 118 m

Beobachtung

Neuester Wetterbericht von vor 34 Minuten, um 13:20 UTC
Wind 14 kt aus Ost
Temperatur 4°C
Luftfeuchtigkeit 38%
Luftdruck 1023 hPa
Sichtweite 10 km oder mehr

METAR: ETNN 241320Z AUTO 08014KT 9999 // ////// 04/M09 Q1023 ///

Zeit: 14:54 (13:54 UTC)

Prognose

Neuester Wetterbericht von vor 26 Stunden und 49 Minuten, um 11:05 UTC
Gültige Prognose vom 23 um 11 UTC bis 23 um 18 UTC
Wind 10 kt aus Ost/Nordost, Böen bis zu 20 kt
Sichtweite: 1115 m
Leicht bewölkt in der Höhe von 3000 ft

TAF: ETNN 231105Z 2311/2318 07010G20KT 9999 NSW FEW030 CANCEL 1115 BY ETGL

Wetterbeobachtungen und Prognosen von mehr als 4000 Flughäfen (METAR und TAF Bericht).

Die verfügbaren Stationen werden durch gelbe und rote Markierungen auf der Karte dargestellt.

Führen Sie die Maus auf sie, um den Namen der Station zu sehen.

Darauf klicken, um die Beobachtung von Wetterbeobachtungen und Prognosen zu sehen.

Um die Karte zu ändern : klicken Sie auf den grünen Tasten mit einem schwarzen Kreuz Zum Vergrößern, auf den grünen Button mit einem Gedankenstrich zu verkleinern, oder auf die grünen Pfeile für benachbarte Karten.


METAR-TAF: